Eureka, Wisconsin
Current Conditions -  °F | °C
As of 1:53 PM on Saturday 20 Dec 2014 (Local Time) from KOSH Reporting Station
Haze Haze  
Wind Chill: 23°   Ceiling: 5000
Heat Index: 29°   Visibility: 3mi
Dew Point: 23°   Wind: 6mph
Humidity: 78%   Direction: 180°S
Pressure: 30.22"   Gusts: NA
Location:  44°N, 88.84°W
Report Text: KOSH 201953Z 18005KT 3SM HZ OVC050 M02/M05 A3022 RMK AO2 SLP251 T10171050
Loading
Personal Weather Stations






























Interactive Weather Map New forecast layout! Learn more

10-Day Weather Forecast

Advertisements
Track Severe Weather on mobile